82OI weather

J-Em Farm Airport
Columbus, Ohio, United States

Public forecast

Using degrees Fahrenheit for public forecast. Weather courtesy of forecast.io.

Closest aviation weather report (METAR) to J-Em Farm Airport

Closest report is Union County Airport, 5.5 nm (10.2 km) NW. Retrieved 2020/05/29 18:59 UTC (27 minutes ago):

KMRT 291859Z AUTO 23013G18KT 10SM CLR 22/18 A2991 RMK AO1

Closest aviation forecast (TAF) to J-Em Farm Airport

Closest forecast is John Glenn Columbus International Airport, 19.9 nm (36.9 km) ESE. Retrieved 2020/05/29 18:24 UTC (1 hour ago):

TAF KCMH 291720Z 2918/3018 22012G17KT P6SM SHRA VCTS BKN060CB TEMPO 2918/2920 4SM TSRA FM292000 24011G19KT 4SM TSRA VCTS BKN035CB TEMPO 2920/2922 2SM +TSRA FM292200 30009G17KT P6SM SHRA VCTS BKN045CB FM300000 33007KT P6SM BKN060 FM300300 33003KT P6SM FEW100 FM301200 33008KT P6SM FEW100